createdAt,value
2022-08-23T00:02:09.132Z,1.23
2022-08-23T00:05:07.412Z,3.83
2022-08-23T00:07:40.618Z,3.17
2022-08-23T00:10:10.844Z,2.25
2022-08-23T00:12:40.030Z,2.45
2022-08-23T00:15:11.119Z,5.32
2022-08-23T00:17:39.648Z,1.48
2022-08-23T00:20:10.359Z,1.45
2022-08-23T00:22:40.072Z,1.60
2022-08-23T00:25:11.029Z,2.67
2022-08-23T00:27:39.102Z,1.02
2022-08-23T00:30:09.839Z,1.50
2022-08-23T00:32:39.469Z,1.75
2022-08-23T00:35:08.909Z,1.33
2022-08-23T00:37:38.268Z,1.52
2022-08-23T00:40:08.449Z,2.70
2022-08-23T00:43:27.258Z,1.42
2022-08-23T00:46:46.095Z,6.13
2022-08-23T00:49:16.463Z,1.98
2022-08-23T00:52:16.380Z,1.55
2022-08-23T00:54:46.088Z,3.10
2022-08-23T00:57:16.527Z,2.60
2022-08-23T00:59:44.253Z,7.50
2022-08-23T01:02:13.701Z,2.58
2022-08-23T01:04:56.309Z,3.55
2022-08-23T01:07:49.486Z,3.03
2022-08-23T01:10:31.411Z,1.75
2022-08-23T01:13:16.700Z,6.00
2022-08-23T01:16:02.836Z,4.40
2022-08-23T01:18:31.658Z,2.33
2022-08-23T01:21:16.926Z,3.28
2022-08-23T01:23:49.241Z,6.00
2022-08-23T01:26:22.049Z,4.43
2022-08-23T01:28:52.876Z,5.10
2022-08-23T01:31:22.522Z,3.20
2022-08-23T01:33:57.555Z,4.18
2022-08-23T01:36:26.014Z,2.28
2022-08-23T01:38:54.874Z,5.65
2022-08-23T01:41:23.845Z,8.48
2022-08-23T01:43:52.101Z,4.45
2022-08-23T01:46:23.329Z,4.70
2022-08-23T01:48:52.112Z,4.15
2022-08-23T01:51:20.747Z,9.60
2022-08-23T01:53:49.408Z,6.82
2022-08-23T01:56:27.602Z,6.35
2022-08-23T01:59:11.612Z,3.72
2022-08-23T02:01:53.694Z,6.85
2022-08-23T02:04:22.722Z,5.25
2022-08-23T02:06:50.360Z,5.30
2022-08-23T02:09:22.797Z,6.43
2022-08-23T02:11:56.116Z,8.98
2022-08-23T02:14:24.600Z,6.20
2022-08-23T02:17:04.513Z,7.97
2022-08-23T02:19:37.873Z,7.20
2022-08-23T02:22:07.285Z,9.07
2022-08-23T02:24:40.721Z,9.10
2022-08-23T02:27:09.327Z,13.07
2022-08-23T02:29:40.360Z,11.02
2022-08-23T02:32:14.671Z,10.32
2022-08-23T02:34:44.294Z,11.35
2022-08-23T02:37:21.252Z,10.55
2022-08-23T02:39:49.039Z,15.63
2022-08-23T02:42:17.948Z,10.55
2022-08-23T02:44:45.567Z,13.00
2022-08-23T02:47:13.230Z,12.20
2022-08-23T02:49:47.532Z,13.13
2022-08-23T02:52:15.447Z,13.52
2022-08-23T02:54:44.497Z,14.23
2022-08-23T02:57:12.929Z,11.90
2022-08-23T02:59:40.550Z,11.85
2022-08-23T03:02:08.984Z,12.70
2022-08-23T03:04:40.901Z,16.63
2022-08-23T03:07:09.594Z,14.65
2022-08-23T03:09:38.665Z,19.20
2022-08-23T03:12:06.537Z,14.45
2022-08-23T03:14:38.375Z,16.42
2022-08-23T03:17:08.126Z,16.85
2022-08-23T03:19:35.900Z,21.38
2022-08-23T03:22:08.172Z,22.35
2022-08-23T03:24:36.400Z,24.30
2022-08-23T03:27:06.858Z,19.15
2022-08-23T03:29:35.030Z,15.73
2022-08-23T03:32:05.328Z,16.50
2022-08-23T03:34:38.341Z,16.50
2022-08-23T03:37:08.757Z,18.92
2022-08-23T03:39:39.001Z,17.58
2022-08-23T03:42:07.131Z,15.70
2022-08-23T03:44:35.658Z,14.55
2022-08-23T03:47:07.024Z,19.80
2022-08-23T03:49:37.826Z,15.73
2022-08-23T03:52:07.209Z,16.45
2022-08-23T03:54:35.938Z,17.23
2022-08-23T03:57:07.277Z,15.23
2022-08-23T03:59:38.792Z,18.60
2022-08-23T04:02:11.199Z,14.63
2022-08-23T04:04:39.869Z,19.55
2022-08-23T04:07:33.767Z,14.63
2022-08-23T04:10:01.603Z,21.58
2022-08-23T04:12:35.932Z,15.80
2022-08-23T04:15:06.133Z,16.63
2022-08-23T04:17:37.891Z,17.55
2022-08-23T04:20:07.474Z,24.17
2022-08-23T04:22:40.929Z,18.25
2022-08-23T04:25:24.569Z,14.85
2022-08-23T04:27:56.839Z,9.88
2022-08-23T04:30:26.036Z,10.63
2022-08-23T04:32:54.062Z,12.90
2022-08-23T04:35:23.845Z,11.75
2022-08-23T04:37:52.905Z,11.88
2022-08-23T04:40:39.609Z,11.25
2022-08-23T04:43:08.779Z,9.90
2022-08-23T04:45:41.296Z,9.70
2022-08-23T04:48:15.483Z,9.65
2022-08-23T04:50:48.531Z,10.63
2022-08-23T04:53:20.275Z,10.95
2022-08-23T04:55:57.315Z,8.38
2022-08-23T04:58:30.509Z,11.30
2022-08-23T05:01:01.110Z,15.63
2022-08-23T05:03:30.172Z,10.30
2022-08-23T05:06:01.586Z,13.73
2022-08-23T05:08:37.009Z,15.82
2022-08-23T05:11:10.360Z,16.63
2022-08-23T05:13:40.663Z,14.13
2022-08-23T05:16:11.149Z,14.25
2022-08-23T05:18:44.357Z,18.48
2022-08-23T05:21:18.145Z,15.38
2022-08-23T05:23:51.081Z,17.80
2022-08-23T05:26:25.478Z,16.05
2022-08-23T05:28:53.271Z,19.08
2022-08-23T05:31:30.690Z,13.80
2022-08-23T05:34:02.841Z,16.90
2022-08-23T05:36:47.434Z,14.73
2022-08-23T05:39:28.721Z,11.70
2022-08-23T05:42:04.474Z,10.85
2022-08-23T05:44:36.426Z,11.45
2022-08-23T05:47:10.731Z,10.40
2022-08-23T05:49:51.174Z,13.57
2022-08-23T05:52:19.533Z,9.77
2022-08-23T05:54:47.219Z,10.45
2022-08-23T05:57:40.763Z,8.55
2022-08-23T06:00:14.483Z,11.15
2022-08-23T06:03:02.583Z,7.47
2022-08-23T06:05:33.384Z,8.98
2022-08-23T06:08:05.278Z,13.98
2022-08-23T06:10:40.502Z,7.97
2022-08-23T06:13:43.931Z,8.30
2022-08-23T06:16:15.013Z,8.30
2022-08-23T06:18:45.507Z,11.00
2022-08-23T06:21:40.008Z,11.48
2022-08-23T06:24:08.403Z,9.68
2022-08-23T06:26:45.894Z,7.97
2022-08-23T06:29:16.440Z,13.70
2022-08-23T06:31:51.635Z,11.65
2022-08-23T06:34:37.741Z,10.15
2022-08-23T06:37:27.999Z,12.32
2022-08-23T06:40:07.078Z,13.88
2022-08-23T06:42:49.645Z,14.52
2022-08-23T06:45:34.942Z,14.73
2022-08-23T06:48:07.454Z,15.38
2022-08-23T06:50:36.702Z,16.27
2022-08-23T06:53:23.900Z,14.60
2022-08-23T06:56:09.862Z,20.42
2022-08-23T06:58:48.769Z,18.10
2022-08-23T07:01:45.536Z,18.33
2022-08-23T07:04:42.001Z,15.65
2022-08-23T07:07:24.077Z,14.32
2022-08-23T07:10:06.151Z,21.85
2022-08-23T07:12:34.298Z,15.23
2022-08-23T07:15:02.088Z,13.23
2022-08-23T07:17:29.602Z,11.50
2022-08-23T07:19:57.298Z,16.92
2022-08-23T07:22:26.061Z,14.93
2022-08-23T07:24:53.799Z,14.07
2022-08-23T07:27:23.377Z,10.93
2022-08-23T07:30:11.758Z,13.73
2022-08-23T07:32:41.412Z,18.45
2022-08-23T07:35:40.332Z,14.02
2022-08-23T07:38:09.263Z,15.43
2022-08-23T07:40:39.027Z,14.43
2022-08-23T07:43:10.099Z,17.40
2022-08-23T07:45:41.072Z,17.50
2022-08-23T07:48:11.834Z,16.80
2022-08-23T07:51:12.603Z,15.38
2022-08-23T07:53:43.053Z,15.00
2022-08-23T07:56:16.979Z,12.35
2022-08-23T07:59:07.906Z,14.30
2022-08-23T08:01:50.289Z,16.50
2022-08-23T08:04:18.500Z,9.60
2022-08-23T08:07:10.407Z,11.05
2022-08-23T08:09:41.227Z,12.65
2022-08-23T08:12:11.171Z,8.32
2022-08-23T08:17:42.447Z,13.10
2022-08-23T08:20:16.203Z,10.32
2022-08-23T08:23:04.468Z,14.60
2022-08-23T08:26:09.874Z,11.25
2022-08-23T08:28:38.815Z,12.77
2022-08-23T08:31:07.923Z,14.18
2022-08-23T08:33:35.902Z,17.98
2022-08-23T08:36:08.858Z,9.48
2022-08-23T08:38:48.486Z,6.38
2022-08-23T08:41:57.443Z,15.85
2022-08-23T08:44:47.382Z,9.00
2022-08-23T08:47:25.418Z,11.50
2022-08-23T08:50:02.802Z,7.20
2022-08-23T08:52:40.702Z,6.90
2022-08-23T08:55:41.041Z,8.75
2022-08-23T08:58:17.262Z,8.15
2022-08-23T09:00:47.360Z,8.05
2022-08-23T09:03:22.212Z,14.27
2022-08-23T09:06:00.103Z,24.42
2022-08-23T09:08:45.855Z,9.32
2022-08-23T09:11:21.148Z,5.38
2022-08-23T09:14:12.951Z,3.42
2022-08-23T09:17:06.584Z,6.00
2022-08-23T09:19:38.362Z,6.05
2022-08-23T09:22:13.536Z,4.38
2022-08-23T09:24:41.837Z,6.95
2022-08-23T09:27:16.027Z,7.25
2022-08-23T09:29:57.163Z,9.98
2022-08-23T09:32:36.420Z,8.18
2022-08-23T09:35:13.679Z,8.85
2022-08-23T09:38:15.200Z,10.02
2022-08-23T09:40:49.919Z,7.50
2022-08-23T09:43:23.636Z,4.80
2022-08-23T09:45:51.508Z,11.27
2022-08-23T09:48:42.692Z,6.60
2022-08-23T09:51:34.971Z,13.80
2022-08-23T09:54:09.898Z,5.53
2022-08-23T09:56:45.299Z,10.32
2022-08-23T09:59:26.953Z,8.77
2022-08-23T10:02:02.420Z,5.35
2022-08-23T10:04:47.593Z,5.93
2022-08-23T10:07:38.313Z,7.13
2022-08-23T10:10:24.460Z,4.68
2022-08-23T10:12:57.045Z,6.20
2022-08-23T10:15:49.609Z,5.22
2022-08-23T10:18:44.566Z,4.65
2022-08-23T10:21:24.245Z,5.97
2022-08-23T10:24:16.704Z,4.57
2022-08-23T10:27:43.261Z,6.55
2022-08-23T10:30:32.592Z,4.10
2022-08-23T10:33:19.771Z,3.88
2022-08-23T10:36:23.486Z,4.95
2022-08-23T10:39:06.277Z,8.32
2022-08-23T10:41:49.689Z,5.60
2022-08-23T10:44:26.026Z,3.33
2022-08-23T10:47:21.999Z,3.33
2022-08-23T10:49:52.520Z,6.13
2022-08-23T10:52:37.330Z,5.70
2022-08-23T10:55:17.678Z,4.18
2022-08-23T10:57:47.980Z,6.60
2022-08-23T11:00:25.694Z,5.45
2022-08-23T11:03:02.480Z,2.35
2022-08-23T11:05:36.600Z,4.13
2022-08-23T11:08:34.389Z,3.63
2022-08-23T11:11:25.827Z,6.43
2022-08-23T11:13:53.936Z,6.55
2022-08-23T11:16:31.184Z,3.47
2022-08-23T11:18:59.908Z,9.85
2022-08-23T11:21:39.967Z,2.72
2022-08-23T11:24:13.198Z,2.85
2022-08-23T11:29:22.418Z,4.95
2022-08-23T11:32:32.978Z,2.40
2022-08-23T11:35:05.742Z,1.27
2022-08-23T11:37:55.385Z,2.72
2022-08-23T11:40:51.149Z,1.13
2022-08-23T11:43:34.593Z,4.68
2022-08-23T11:46:27.119Z,1.10
2022-08-23T11:49:25.334Z,3.00
2022-08-23T11:52:30.739Z,1.88
2022-08-23T11:55:24.260Z,2.67
2022-08-23T11:58:20.312Z,1.17
2022-08-23T12:01:08.006Z,0.98
2022-08-23T12:03:52.220Z,3.47
2022-08-23T12:06:22.719Z,1.30
2022-08-23T12:09:02.001Z,3.58
2022-08-23T12:11:57.641Z,1.65
2022-08-23T12:14:39.411Z,3.40
2022-08-23T12:17:13.393Z,3.90
2022-08-23T12:19:56.799Z,3.58
2022-08-23T12:22:30.990Z,2.20
2022-08-23T12:25:00.673Z,5.05
2022-08-23T12:27:34.193Z,7.53
2022-08-23T12:30:37.775Z,4.32
2022-08-23T12:33:27.164Z,1.30
2022-08-23T12:36:23.981Z,1.42
2022-08-23T12:39:08.750Z,2.95
2022-08-23T12:41:59.043Z,3.03
2022-08-23T12:44:29.494Z,2.30
2022-08-23T12:46:57.760Z,2.23
2022-08-23T12:49:34.480Z,3.10
2022-08-23T12:52:08.696Z,4.13
2022-08-23T12:54:50.263Z,1.15
2022-08-23T12:57:21.374Z,2.08
2022-08-23T13:00:17.120Z,1.13
2022-08-23T13:03:08.638Z,0.57
2022-08-23T13:05:54.733Z,1.38
2022-08-23T13:08:46.276Z,4.97
2022-08-23T13:11:18.006Z,0.40
2022-08-23T13:13:46.021Z,3.95
2022-08-23T13:16:50.798Z,1.70
2022-08-23T13:19:27.922Z,2.03
2022-08-23T13:22:19.793Z,2.92
2022-08-23T13:25:05.973Z,0.70
2022-08-23T13:28:00.746Z,3.85
2022-08-23T13:30:32.339Z,0.90
2022-08-23T13:33:07.626Z,3.75
2022-08-23T13:35:38.342Z,0.60
2022-08-23T13:38:19.801Z,1.40
2022-08-23T13:41:05.142Z,5.88
2022-08-23T13:43:45.174Z,0.35
2022-08-23T13:46:24.041Z,0.25
2022-08-23T13:48:58.629Z,2.35
2022-08-23T13:51:29.179Z,0.85
2022-08-23T13:53:59.553Z,3.63
2022-08-23T13:56:29.916Z,0.20
2022-08-23T13:59:03.588Z,0.73
2022-08-23T14:01:31.720Z,1.95
2022-08-23T14:03:59.503Z,0.50
2022-08-23T14:06:27.124Z,2.22
2022-08-23T14:08:54.704Z,1.25
2022-08-23T14:11:22.373Z,0.68
2022-08-23T14:13:50.705Z,3.10
2022-08-23T14:16:35.005Z,0.20
2022-08-23T14:21:54.321Z,3.10
2022-08-23T14:24:22.216Z,0.30
2022-08-23T14:26:52.424Z,3.05
2022-08-23T14:29:22.771Z,0.20
2022-08-23T14:31:54.007Z,4.30
2022-08-23T14:34:21.916Z,0.32
2022-08-23T14:39:43.901Z,0.25
2022-08-23T14:42:16.402Z,1.60
2022-08-23T14:44:44.151Z,0.77
2022-08-23T14:47:12.605Z,0.20
2022-08-23T14:49:40.389Z,1.48
2022-08-23T14:52:08.310Z,0.50
2022-08-23T14:54:36.306Z,0.28
2022-08-23T14:57:04.063Z,2.28
2022-08-23T14:59:31.621Z,0.32
2022-08-23T15:01:59.642Z,1.63
2022-08-23T15:04:34.128Z,1.45
2022-08-23T15:07:19.924Z,1.63
2022-08-23T15:09:50.376Z,2.63
2022-08-23T15:15:15.875Z,1.92
2022-08-23T15:17:52.390Z,2.00
2022-08-23T15:20:22.925Z,0.88
2022-08-23T15:22:55.681Z,1.17
2022-08-23T15:25:34.358Z,0.28
2022-08-23T15:28:13.027Z,1.55
2022-08-23T15:30:47.762Z,1.05
2022-08-23T15:33:16.813Z,0.40
2022-08-23T15:35:48.749Z,1.30
2022-08-23T15:38:20.357Z,1.98
2022-08-23T15:40:50.328Z,7.32
2022-08-23T15:43:20.679Z,0.32
2022-08-23T15:45:51.304Z,2.42
2022-08-23T15:48:19.078Z,2.78
2022-08-23T15:50:47.339Z,0.47
2022-08-23T15:53:20.238Z,2.17
2022-08-23T15:55:49.726Z,1.02
2022-08-23T15:58:25.243Z,1.25
2022-08-23T16:00:54.889Z,1.77
2022-08-23T16:03:29.527Z,0.40
2022-08-23T16:06:03.077Z,2.97
2022-08-23T16:08:38.836Z,1.40
2022-08-23T16:11:13.484Z,0.82
2022-08-23T16:13:48.199Z,1.15
2022-08-23T16:16:27.790Z,0.95
2022-08-23T16:19:05.561Z,1.15
2022-08-23T16:21:35.350Z,5.65
2022-08-23T16:24:07.998Z,3.22
2022-08-23T16:26:41.983Z,3.85
2022-08-23T16:29:17.763Z,1.40
2022-08-23T16:31:47.554Z,1.17
2022-08-23T16:34:21.950Z,0.40
2022-08-23T16:37:13.200Z,5.30
2022-08-23T16:39:46.995Z,1.95
2022-08-23T16:42:20.196Z,2.88
2022-08-23T16:44:59.157Z,2.50
2022-08-23T16:47:34.242Z,3.42
2022-08-23T16:50:10.804Z,4.97
2022-08-23T16:52:46.785Z,2.35
2022-08-23T16:55:22.533Z,1.85
2022-08-23T16:58:00.963Z,1.27
2022-08-23T17:00:30.289Z,7.95
2022-08-23T17:03:09.797Z,7.75
2022-08-23T17:06:04.370Z,0.98
2022-08-23T17:08:53.143Z,4.65
2022-08-23T17:11:37.888Z,1.25
2022-08-23T17:14:12.312Z,3.13
2022-08-23T17:16:52.470Z,3.92
2022-08-23T17:19:47.363Z,2.05
2022-08-23T17:22:48.625Z,2.55
2022-08-23T17:25:24.157Z,6.00
2022-08-23T17:27:56.339Z,3.80
2022-08-23T17:30:27.907Z,4.63
2022-08-23T17:33:01.856Z,2.42
2022-08-23T17:35:34.024Z,3.55
2022-08-23T17:40:57.738Z,1.33
2022-08-23T17:43:32.463Z,2.07
2022-08-23T17:46:02.567Z,2.63
2022-08-23T17:48:33.796Z,4.55
2022-08-23T17:51:09.724Z,4.13
2022-08-23T17:53:42.758Z,5.75
2022-08-23T17:56:18.300Z,4.07
2022-08-23T17:58:52.071Z,2.88
2022-08-23T18:01:25.595Z,4.38
2022-08-23T18:04:09.205Z,1.65
2022-08-23T18:06:46.650Z,6.90
2022-08-23T18:09:17.625Z,2.00
2022-08-23T18:11:47.517Z,3.05
2022-08-23T18:14:22.168Z,6.07
2022-08-23T18:17:02.171Z,3.30
2022-08-23T18:19:40.406Z,6.95
2022-08-23T18:25:03.781Z,5.07
2022-08-23T18:27:51.450Z,3.83
2022-08-23T18:30:20.311Z,3.50
2022-08-23T18:32:48.748Z,4.03
2022-08-23T18:35:19.041Z,4.10
2022-08-23T18:40:45.202Z,3.63
2022-08-23T18:45:47.656Z,4.75
2022-08-23T18:48:15.663Z,2.83
2022-08-23T18:50:44.261Z,3.95
2022-08-23T18:53:13.134Z,3.35
2022-08-23T18:55:41.845Z,4.63
2022-08-23T18:58:09.796Z,4.55
2022-08-23T19:00:39.030Z,11.30
2022-08-23T19:03:07.680Z,6.65
2022-08-23T19:05:41.623Z,3.70
2022-08-23T19:08:11.531Z,4.50
2022-08-23T19:10:41.246Z,3.15
2022-08-23T19:13:10.145Z,4.38
2022-08-23T19:15:40.638Z,5.28
2022-08-23T19:18:09.440Z,8.07
2022-08-23T19:20:38.100Z,5.28
2022-08-23T19:23:06.550Z,5.63
2022-08-23T19:25:37.088Z,6.30
2022-08-23T19:28:06.282Z,4.85
2022-08-23T19:30:34.444Z,4.32
2022-08-23T19:33:03.666Z,7.78
2022-08-23T19:35:31.613Z,4.90
2022-08-23T19:37:59.459Z,7.00
2022-08-23T19:40:27.771Z,6.53
2022-08-23T19:42:55.765Z,6.88
2022-08-23T19:45:23.487Z,3.75
2022-08-23T19:47:51.230Z,3.80
2022-08-23T19:50:24.220Z,2.80
2022-08-23T19:52:52.841Z,9.65
2022-08-23T19:55:21.569Z,4.00
2022-08-23T19:57:53.148Z,3.90
2022-08-23T20:00:22.998Z,3.13
2022-08-23T20:02:50.694Z,3.90
2022-08-23T20:05:20.598Z,4.35
2022-08-23T20:07:51.112Z,3.13
2022-08-23T20:10:22.169Z,5.70
2022-08-23T20:12:51.207Z,4.35
2022-08-23T20:15:23.024Z,2.50
2022-08-23T20:17:54.935Z,4.00
2022-08-23T20:20:29.920Z,6.00
2022-08-23T20:23:20.931Z,2.58
2022-08-23T20:28:25.762Z,3.17
2022-08-23T20:30:57.114Z,3.75
2022-08-23T20:33:26.942Z,5.38
2022-08-23T20:38:33.942Z,5.05
2022-08-23T20:41:03.319Z,3.65
2022-08-23T20:43:33.350Z,3.70
2022-08-23T20:46:06.518Z,3.67
2022-08-23T20:48:40.892Z,3.45
2022-08-23T20:51:12.366Z,2.95
2022-08-23T20:53:40.103Z,3.15
2022-08-23T20:56:10.045Z,4.82
2022-08-23T20:58:38.988Z,6.38
2022-08-23T21:01:10.199Z,4.32
2022-08-23T21:03:41.370Z,8.60
2022-08-23T21:06:16.610Z,3.78
2022-08-23T21:08:53.981Z,3.60
2022-08-23T21:11:26.108Z,5.45
2022-08-23T21:13:58.537Z,5.75
2022-08-23T21:16:27.148Z,4.10
2022-08-23T21:18:57.533Z,2.13
2022-08-23T21:21:30.963Z,6.05
2022-08-23T21:24:03.842Z,4.00
2022-08-23T21:26:32.229Z,4.28
2022-08-23T21:29:00.579Z,5.05
2022-08-23T21:31:30.201Z,4.95
2022-08-23T21:34:00.865Z,5.22
2022-08-23T21:36:28.940Z,4.72
2022-08-23T21:39:01.533Z,6.75
2022-08-23T21:41:43.897Z,4.72
2022-08-23T21:44:16.837Z,4.13
2022-08-23T21:46:45.357Z,6.28
2022-08-23T21:49:17.258Z,5.97
2022-08-23T21:51:50.671Z,5.30
2022-08-23T21:54:56.342Z,2.75
2022-08-23T21:57:32.536Z,5.65
2022-08-23T22:00:03.941Z,4.47
2022-08-23T22:02:41.837Z,5.88
2022-08-23T22:05:11.841Z,3.70
2022-08-23T22:07:47.762Z,7.55
2022-08-23T22:10:18.182Z,2.85
2022-08-23T22:12:46.013Z,4.88
2022-08-23T22:15:15.041Z,2.90
2022-08-23T22:17:42.846Z,12.27
2022-08-23T22:20:13.850Z,8.90
2022-08-23T22:22:45.254Z,5.15
2022-08-23T22:28:27.459Z,5.05
2022-08-23T22:31:02.565Z,9.77
2022-08-23T22:33:31.473Z,7.00
2022-08-23T22:36:09.754Z,7.03
2022-08-23T22:38:38.892Z,6.13
2022-08-23T22:41:07.796Z,5.15
2022-08-23T22:43:36.425Z,5.03
2022-08-23T22:46:05.675Z,7.40
2022-08-23T22:48:35.662Z,3.97
2022-08-23T22:51:10.578Z,6.75
2022-08-23T22:53:41.345Z,8.48
2022-08-23T22:56:12.461Z,6.38
2022-08-23T22:58:40.544Z,6.25
2022-08-23T23:01:12.972Z,5.68
2022-08-23T23:03:42.786Z,4.80
2022-08-23T23:06:10.792Z,8.57
2022-08-23T23:08:38.547Z,5.68
2022-08-23T23:11:10.532Z,6.68
2022-08-23T23:13:39.625Z,5.78
2022-08-23T23:16:10.510Z,5.93
2022-08-23T23:18:40.312Z,11.25
2022-08-23T23:21:10.246Z,7.22
2022-08-23T23:23:38.541Z,6.90
2022-08-23T23:26:08.240Z,9.48
2022-08-23T23:28:35.935Z,4.45
2022-08-23T23:31:06.937Z,9.02
2022-08-23T23:33:36.665Z,3.97
2022-08-23T23:36:04.362Z,5.75
2022-08-23T23:38:32.039Z,5.60
2022-08-23T23:40:59.766Z,6.82
2022-08-23T23:43:27.437Z,6.53
2022-08-23T23:45:55.181Z,7.07
2022-08-23T23:48:23.531Z,4.82
2022-08-23T23:50:51.461Z,12.18
2022-08-23T23:53:22.200Z,5.20
2022-08-23T23:56:02.041Z,7.07
2022-08-23T23:58:30.076Z,7.45
